sensor_id;sensor_type;location;lat;lon;timestamp;P1;durP1;ratioP1;P2;durP2;ratioP2
3443;SDS011;1736;52.068;6.968;2023-04-01T00:01:43;8.73;;;3.30;;
3443;SDS011;1736;52.068;6.968;2023-04-01T00:04:09;6.20;;;3.70;;
3443;SDS011;1736;52.068;6.968;2023-04-01T00:06:36;6.90;;;4.13;;
3443;SDS011;1736;52.068;6.968;2023-04-01T00:09:02;8.87;;;5.00;;
3443;SDS011;1736;52.068;6.968;2023-04-01T00:11:29;8.83;;;4.37;;
3443;SDS011;1736;52.068;6.968;2023-04-01T00:13:55;7.77;;;3.73;;
3443;SDS011;1736;52.068;6.968;2023-04-01T00:16:22;5.47;;;4.27;;
3443;SDS011;1736;52.068;6.968;2023-04-01T00:18:50;11.50;;;4.03;;
3443;SDS011;1736;52.068;6.968;2023-04-01T00:21:17;4.07;;;3.60;;
3443;SDS011;1736;52.068;6.968;2023-04-01T00:23:45;5.23;;;3.90;;
3443;SDS011;1736;52.068;6.968;2023-04-01T00:26:11;5.37;;;3.50;;
3443;SDS011;1736;52.068;6.968;2023-04-01T00:28:39;6.70;;;3.67;;
3443;SDS011;1736;52.068;6.968;2023-04-01T00:31:06;5.10;;;3.40;;
3443;SDS011;1736;52.068;6.968;2023-04-01T00:33:34;5.10;;;3.97;;
3443;SDS011;1736;52.068;6.968;2023-04-01T00:36:09;4.10;;;3.70;;
3443;SDS011;1736;52.068;6.968;2023-04-01T00:38:36;4.83;;;3.73;;
3443;SDS011;1736;52.068;6.968;2023-04-01T00:41:04;6.70;;;4.17;;
3443;SDS011;1736;52.068;6.968;2023-04-01T00:43:32;3.73;;;3.40;;
3443;SDS011;1736;52.068;6.968;2023-04-01T00:45:59;3.80;;;3.50;;
3443;SDS011;1736;52.068;6.968;2023-04-01T00:48:26;5.73;;;4.10;;
3443;SDS011;1736;52.068;6.968;2023-04-01T00:50:57;3.67;;;3.37;;
3443;SDS011;1736;52.068;6.968;2023-04-01T00:53:28;4.93;;;3.43;;
3443;SDS011;1736;52.068;6.968;2023-04-01T00:55:58;4.00;;;3.60;;
3443;SDS011;1736;52.068;6.968;2023-04-01T00:58:29;4.40;;;3.47;;
3443;SDS011;1736;52.068;6.968;2023-04-01T01:00:59;3.70;;;3.40;;
3443;SDS011;1736;52.068;6.968;2023-04-01T01:03:26;10.70;;;4.53;;
3443;SDS011;1736;52.068;6.968;2023-04-01T01:05:57;5.10;;;3.90;;
3443;SDS011;1736;52.068;6.968;2023-04-01T01:08:37;6.67;;;3.63;;
3443;SDS011;1736;52.068;6.968;2023-04-01T01:11:13;6.37;;;3.93;;
3443;SDS011;1736;52.068;6.968;2023-04-01T01:13:45;10.57;;;4.17;;
3443;SDS011;1736;52.068;6.968;2023-04-01T01:16:24;4.07;;;3.67;;
3443;SDS011;1736;52.068;6.968;2023-04-01T01:18:53;5.57;;;3.43;;
3443;SDS011;1736;52.068;6.968;2023-04-01T01:21:37;4.70;;;3.60;;
3443;SDS011;1736;52.068;6.968;2023-04-01T01:24:28;4.83;;;3.60;;
3443;SDS011;1736;52.068;6.968;2023-04-01T01:27:03;6.30;;;3.87;;
3443;SDS011;1736;52.068;6.968;2023-04-01T01:29:37;6.40;;;4.10;;
3443;SDS011;1736;52.068;6.968;2023-04-01T01:32:14;8.23;;;4.30;;
3443;SDS011;1736;52.068;6.968;2023-04-01T01:34:48;6.13;;;3.70;;
3443;SDS011;1736;52.068;6.968;2023-04-01T01:37:25;4.83;;;3.43;;
3443;SDS011;1736;52.068;6.968;2023-04-01T01:39:54;4.77;;;3.30;;
3443;SDS011;1736;52.068;6.968;2023-04-01T01:42:22;4.80;;;3.60;;
3443;SDS011;1736;52.068;6.968;2023-04-01T01:44:51;4.93;;;3.00;;
3443;SDS011;1736;52.068;6.968;2023-04-01T01:47:20;6.83;;;3.43;;
3443;SDS011;1736;52.068;6.968;2023-04-01T01:49:49;3.23;;;2.87;;
3443;SDS011;1736;52.068;6.968;2023-04-01T01:52:18;2.53;;;2.33;;
3443;SDS011;1736;52.068;6.968;2023-04-01T01:54:49;2.83;;;2.53;;
3443;SDS011;1736;52.068;6.968;2023-04-01T01:57:16;4.00;;;2.87;;
3443;SDS011;1736;52.068;6.968;2023-04-01T01:59:45;6.73;;;4.07;;
3443;SDS011;1736;52.068;6.968;2023-04-01T02:02:14;3.23;;;2.77;;
3443;SDS011;1736;52.068;6.968;2023-04-01T02:04:43;3.87;;;2.87;;
3443;SDS011;1736;52.068;6.968;2023-04-01T02:07:12;3.13;;;2.93;;
3443;SDS011;1736;52.068;6.968;2023-04-01T02:09:42;3.60;;;2.77;;
3443;SDS011;1736;52.068;6.968;2023-04-01T02:12:11;3.13;;;2.90;;
3443;SDS011;1736;52.068;6.968;2023-04-01T02:14:42;3.33;;;3.03;;
3443;SDS011;1736;52.068;6.968;2023-04-01T02:17:12;3.20;;;3.00;;
3443;SDS011;1736;52.068;6.968;2023-04-01T02:19:43;6.50;;;3.10;;
3443;SDS011;1736;52.068;6.968;2023-04-01T02:22:16;3.90;;;3.00;;
3443;SDS011;1736;52.068;6.968;2023-04-01T02:24:46;4.40;;;3.20;;
3443;SDS011;1736;52.068;6.968;2023-04-01T02:27:16;3.23;;;2.93;;
3443;SDS011;1736;52.068;6.968;2023-04-01T02:29:43;4.30;;;3.37;;
3443;SDS011;1736;52.068;6.968;2023-04-01T02:32:09;3.57;;;2.80;;
3443;SDS011;1736;52.068;6.968;2023-04-01T02:34:36;4.70;;;3.50;;
3443;SDS011;1736;52.068;6.968;2023-04-01T02:37:03;3.17;;;2.67;;
3443;SDS011;1736;52.068;6.968;2023-04-01T02:39:30;3.50;;;2.70;;
3443;SDS011;1736;52.068;6.968;2023-04-01T02:41:57;4.57;;;3.07;;
3443;SDS011;1736;52.068;6.968;2023-04-01T02:44:25;2.90;;;2.70;;
3443;SDS011;1736;52.068;6.968;2023-04-01T02:46:51;3.37;;;3.10;;
3443;SDS011;1736;52.068;6.968;2023-04-01T02:49:18;3.10;;;2.80;;
3443;SDS011;1736;52.068;6.968;2023-04-01T02:51:44;3.00;;;2.70;;
3443;SDS011;1736;52.068;6.968;2023-04-01T02:54:11;4.00;;;3.00;;
3443;SDS011;1736;52.068;6.968;2023-04-01T02:56:37;3.97;;;3.13;;
3443;SDS011;1736;52.068;6.968;2023-04-01T02:59:04;3.17;;;2.87;;
3443;SDS011;1736;52.068;6.968;2023-04-01T03:01:32;3.73;;;3.03;;
3443;SDS011;1736;52.068;6.968;2023-04-01T03:03:58;3.13;;;2.93;;
3443;SDS011;1736;52.068;6.968;2023-04-01T03:06:25;3.60;;;2.90;;
3443;SDS011;1736;52.068;6.968;2023-04-01T03:08:51;3.50;;;3.20;;
3443;SDS011;1736;52.068;6.968;2023-04-01T03:11:18;3.33;;;3.03;;
3443;SDS011;1736;52.068;6.968;2023-04-01T03:13:46;3.17;;;2.87;;
3443;SDS011;1736;52.068;6.968;2023-04-01T03:16:13;4.40;;;2.93;;
3443;SDS011;1736;52.068;6.968;2023-04-01T03:18:42;5.30;;;3.40;;
3443;SDS011;1736;52.068;6.968;2023-04-01T03:21:12;3.60;;;3.27;;
3443;SDS011;1736;52.068;6.968;2023-04-01T03:23:40;3.30;;;3.00;;
3443;SDS011;1736;52.068;6.968;2023-04-01T03:26:06;4.97;;;3.30;;
3443;SDS011;1736;52.068;6.968;2023-04-01T03:28:33;4.03;;;2.97;;
3443;SDS011;1736;52.068;6.968;2023-04-01T03:31:00;4.47;;;2.83;;
3443;SDS011;1736;52.068;6.968;2023-04-01T03:33:27;3.60;;;3.30;;
3443;SDS011;1736;52.068;6.968;2023-04-01T03:35:55;4.03;;;3.33;;
3443;SDS011;1736;52.068;6.968;2023-04-01T03:38:21;6.03;;;3.10;;
3443;SDS011;1736;52.068;6.968;2023-04-01T03:40:48;4.50;;;3.40;;
3443;SDS011;1736;52.068;6.968;2023-04-01T03:43:14;5.40;;;3.80;;
3443;SDS011;1736;52.068;6.968;2023-04-01T03:45:43;3.17;;;2.80;;
3443;SDS011;1736;52.068;6.968;2023-04-01T03:48:10;5.50;;;3.73;;
3443;SDS011;1736;52.068;6.968;2023-04-01T03:50:36;3.90;;;3.43;;
3443;SDS011;1736;52.068;6.968;2023-04-01T03:53:04;4.33;;;3.57;;
3443;SDS011;1736;52.068;6.968;2023-04-01T03:55:31;4.13;;;3.43;;
3443;SDS011;1736;52.068;6.968;2023-04-01T03:57:57;3.73;;;3.40;;
3443;SDS011;1736;52.068;6.968;2023-04-01T04:00:24;4.90;;;3.20;;
3443;SDS011;1736;52.068;6.968;2023-04-01T04:02:51;3.83;;;3.40;;
3443;SDS011;1736;52.068;6.968;2023-04-01T04:05:17;4.37;;;3.97;;
3443;SDS011;1736;52.068;6.968;2023-04-01T04:07:44;3.40;;;3.10;;
3443;SDS011;1736;52.068;6.968;2023-04-01T04:10:11;5.60;;;3.80;;
3443;SDS011;1736;52.068;6.968;2023-04-01T04:12:38;4.10;;;3.67;;
3443;SDS011;1736;52.068;6.968;2023-04-01T04:15:05;3.80;;;3.40;;
3443;SDS011;1736;52.068;6.968;2023-04-01T04:17:32;5.33;;;4.30;;
3443;SDS011;1736;52.068;6.968;2023-04-01T04:19:59;4.90;;;4.20;;
3443;SDS011;1736;52.068;6.968;2023-04-01T04:22:25;4.30;;;3.90;;
3443;SDS011;1736;52.068;6.968;2023-04-01T04:24:52;4.90;;;3.57;;
3443;SDS011;1736;52.068;6.968;2023-04-01T04:27:20;5.30;;;4.17;;
3443;SDS011;1736;52.068;6.968;2023-04-01T04:29:46;4.07;;;3.70;;
3443;SDS011;1736;52.068;6.968;2023-04-01T04:32:13;5.43;;;4.40;;
3443;SDS011;1736;52.068;6.968;2023-04-01T04:34:40;4.97;;;4.27;;
3443;SDS011;1736;52.068;6.968;2023-04-01T04:37:06;7.00;;;4.20;;
3443;SDS011;1736;52.068;6.968;2023-04-01T04:39:33;4.10;;;3.63;;
3443;SDS011;1736;52.068;6.968;2023-04-01T04:41:59;5.60;;;4.30;;
3443;SDS011;1736;52.068;6.968;2023-04-01T04:44:27;6.03;;;3.63;;
3443;SDS011;1736;52.068;6.968;2023-04-01T04:46:53;5.40;;;3.47;;
3443;SDS011;1736;52.068;6.968;2023-04-01T04:49:20;4.97;;;4.03;;
3443;SDS011;1736;52.068;6.968;2023-04-01T04:51:46;6.90;;;4.10;;
3443;SDS011;1736;52.068;6.968;2023-04-01T04:54:13;4.60;;;3.97;;
3443;SDS011;1736;52.068;6.968;2023-04-01T04:56:39;5.03;;;4.23;;
3443;SDS011;1736;52.068;6.968;2023-04-01T04:59:06;5.70;;;4.07;;
3443;SDS011;1736;52.068;6.968;2023-04-01T05:01:34;6.20;;;4.23;;
3443;SDS011;1736;52.068;6.968;2023-04-01T05:04:00;4.90;;;4.27;;
3443;SDS011;1736;52.068;6.968;2023-04-01T05:06:27;4.53;;;3.93;;
3443;SDS011;1736;52.068;6.968;2023-04-01T05:08:54;4.80;;;3.70;;
3443;SDS011;1736;52.068;6.968;2023-04-01T05:11:21;4.90;;;4.20;;
3443;SDS011;1736;52.068;6.968;2023-04-01T05:13:48;5.30;;;3.87;;
3443;SDS011;1736;52.068;6.968;2023-04-01T05:16:15;5.77;;;4.20;;
3443;SDS011;1736;52.068;6.968;2023-04-01T05:18:45;5.83;;;4.40;;
3443;SDS011;1736;52.068;6.968;2023-04-01T05:21:12;4.83;;;4.10;;
3443;SDS011;1736;52.068;6.968;2023-04-01T05:23:40;6.53;;;4.50;;
3443;SDS011;1736;52.068;6.968;2023-04-01T05:26:07;6.03;;;3.93;;
3443;SDS011;1736;52.068;6.968;2023-04-01T05:28:36;5.53;;;4.20;;
3443;SDS011;1736;52.068;6.968;2023-04-01T05:31:03;7.00;;;4.63;;
3443;SDS011;1736;52.068;6.968;2023-04-01T05:33:31;5.97;;;4.27;;
3443;SDS011;1736;52.068;6.968;2023-04-01T05:36:06;13.23;;;4.73;;
3443;SDS011;1736;52.068;6.968;2023-04-01T05:38:33;7.63;;;4.83;;
3443;SDS011;1736;52.068;6.968;2023-04-01T05:41:00;6.10;;;4.23;;
3443;SDS011;1736;52.068;6.968;2023-04-01T05:43:27;7.80;;;4.70;;
3443;SDS011;1736;52.068;6.968;2023-04-01T05:45:55;6.13;;;4.40;;
3443;SDS011;1736;52.068;6.968;2023-04-01T05:48:22;5.87;;;4.30;;
3443;SDS011;1736;52.068;6.968;2023-04-01T05:50:49;7.40;;;5.00;;
3443;SDS011;1736;52.068;6.968;2023-04-01T05:53:17;4.50;;;3.93;;
3443;SDS011;1736;52.068;6.968;2023-04-01T05:55:43;7.10;;;4.23;;
3443;SDS011;1736;52.068;6.968;2023-04-01T05:58:10;5.10;;;4.20;;
3443;SDS011;1736;52.068;6.968;2023-04-01T06:00:37;6.23;;;4.70;;
3443;SDS011;1736;52.068;6.968;2023-04-01T06:03:04;9.00;;;5.33;;
3443;SDS011;1736;52.068;6.968;2023-04-01T06:05:35;7.03;;;5.03;;
3443;SDS011;1736;52.068;6.968;2023-04-01T06:08:08;6.53;;;4.93;;
3443;SDS011;1736;52.068;6.968;2023-04-01T06:10:39;6.73;;;5.00;;
3443;SDS011;1736;52.068;6.968;2023-04-01T06:13:21;6.40;;;4.87;;
3443;SDS011;1736;52.068;6.968;2023-04-01T06:16:00;7.50;;;4.90;;
3443;SDS011;1736;52.068;6.968;2023-04-01T06:18:37;8.80;;;5.70;;
3443;SDS011;1736;52.068;6.968;2023-04-01T06:21:27;8.57;;;5.43;;
3443;SDS011;1736;52.068;6.968;2023-04-01T06:24:07;9.60;;;6.17;;
3443;SDS011;1736;52.068;6.968;2023-04-01T06:26:51;9.83;;;5.80;;
3443;SDS011;1736;52.068;6.968;2023-04-01T06:29:29;7.10;;;5.20;;
3443;SDS011;1736;52.068;6.968;2023-04-01T06:35:17;7.47;;;5.43;;
3443;SDS011;1736;52.068;6.968;2023-04-01T06:37:58;8.83;;;5.07;;
3443;SDS011;1736;52.068;6.968;2023-04-01T06:40:41;6.50;;;4.80;;
3443;SDS011;1736;52.068;6.968;2023-04-01T06:43:23;10.10;;;5.37;;
3443;SDS011;1736;52.068;6.968;2023-04-01T06:46:00;10.67;;;5.77;;
3443;SDS011;1736;52.068;6.968;2023-04-01T06:48:36;6.80;;;4.80;;
3443;SDS011;1736;52.068;6.968;2023-04-01T06:51:13;7.43;;;5.47;;
3443;SDS011;1736;52.068;6.968;2023-04-01T06:53:53;8.73;;;5.20;;
3443;SDS011;1736;52.068;6.968;2023-04-01T06:56:25;9.90;;;5.67;;
3443;SDS011;1736;52.068;6.968;2023-04-01T06:58:56;7.47;;;5.60;;
3443;SDS011;1736;52.068;6.968;2023-04-01T07:01:28;8.37;;;5.80;;
3443;SDS011;1736;52.068;6.968;2023-04-01T07:04:00;8.30;;;5.93;;
3443;SDS011;1736;52.068;6.968;2023-04-01T07:06:32;8.43;;;5.30;;
3443;SDS011;1736;52.068;6.968;2023-04-01T07:09:04;8.90;;;5.40;;
3443;SDS011;1736;52.068;6.968;2023-04-01T07:11:35;6.83;;;4.90;;
3443;SDS011;1736;52.068;6.968;2023-04-01T07:14:06;5.97;;;4.73;;
3443;SDS011;1736;52.068;6.968;2023-04-01T07:16:40;5.70;;;4.20;;
3443;SDS011;1736;52.068;6.968;2023-04-01T07:19:12;5.60;;;4.47;;
3443;SDS011;1736;52.068;6.968;2023-04-01T07:21:45;5.93;;;4.50;;
3443;SDS011;1736;52.068;6.968;2023-04-01T07:24:16;8.20;;;5.00;;
3443;SDS011;1736;52.068;6.968;2023-04-01T07:26:52;5.67;;;4.60;;
3443;SDS011;1736;52.068;6.968;2023-04-01T07:29:21;5.17;;;4.60;;
3443;SDS011;1736;52.068;6.968;2023-04-01T07:31:56;5.93;;;4.60;;
3443;SDS011;1736;52.068;6.968;2023-04-01T07:34:35;4.60;;;3.87;;
3443;SDS011;1736;52.068;6.968;2023-04-01T07:37:09;5.20;;;3.70;;
3443;SDS011;1736;52.068;6.968;2023-04-01T07:39:42;9.20;;;4.40;;
3443;SDS011;1736;52.068;6.968;2023-04-01T07:42:21;4.63;;;4.00;;
3443;SDS011;1736;52.068;6.968;2023-04-01T07:44:59;4.90;;;4.30;;
3443;SDS011;1736;52.068;6.968;2023-04-01T07:47:40;4.73;;;3.77;;
3443;SDS011;1736;52.068;6.968;2023-04-01T07:50:15;4.00;;;3.60;;
3443;SDS011;1736;52.068;6.968;2023-04-01T07:52:50;3.30;;;3.00;;
3443;SDS011;1736;52.068;6.968;2023-04-01T07:55:28;3.77;;;3.40;;
3443;SDS011;1736;52.068;6.968;2023-04-01T07:57:59;3.77;;;3.37;;
3443;SDS011;1736;52.068;6.968;2023-04-01T08:00:33;3.70;;;3.37;;
3443;SDS011;1736;52.068;6.968;2023-04-01T08:03:12;3.73;;;3.40;;
3443;SDS011;1736;52.068;6.968;2023-04-01T08:05:53;4.07;;;3.13;;
3443;SDS011;1736;52.068;6.968;2023-04-01T08:08:26;3.57;;;3.27;;
3443;SDS011;1736;52.068;6.968;2023-04-01T08:11:04;3.10;;;2.80;;
3443;SDS011;1736;52.068;6.968;2023-04-01T08:13:40;3.63;;;2.60;;
3443;SDS011;1736;52.068;6.968;2023-04-01T08:16:17;3.40;;;3.10;;
3443;SDS011;1736;52.068;6.968;2023-04-01T08:18:52;3.13;;;2.83;;
3443;SDS011;1736;52.068;6.968;2023-04-01T08:21:27;3.27;;;2.97;;
3443;SDS011;1736;52.068;6.968;2023-04-01T08:23:56;2.87;;;2.60;;
3443;SDS011;1736;52.068;6.968;2023-04-01T08:26:26;3.50;;;2.73;;
3443;SDS011;1736;52.068;6.968;2023-04-01T08:28:59;2.90;;;2.70;;
3443;SDS011;1736;52.068;6.968;2023-04-01T08:31:31;3.00;;;2.80;;
3443;SDS011;1736;52.068;6.968;2023-04-01T08:34:01;4.23;;;3.40;;
3443;SDS011;1736;52.068;6.968;2023-04-01T08:36:35;4.83;;;3.10;;
3443;SDS011;1736;52.068;6.968;2023-04-01T08:39:06;3.13;;;2.83;;
3443;SDS011;1736;52.068;6.968;2023-04-01T08:44:46;3.10;;;2.80;;
3443;SDS011;1736;52.068;6.968;2023-04-01T08:47:44;3.00;;;2.70;;
3443;SDS011;1736;52.068;6.968;2023-04-01T08:50:23;2.87;;;2.67;;
3443;SDS011;1736;52.068;6.968;2023-04-01T08:53:03;2.83;;;2.63;;
3443;SDS011;1736;52.068;6.968;2023-04-01T08:55:40;2.50;;;2.40;;
3443;SDS011;1736;52.068;6.968;2023-04-01T09:04:45;2.93;;;2.70;;
3443;SDS011;1736;52.068;6.968;2023-04-01T09:07:34;6.33;;;3.70;;
3443;SDS011;1736;52.068;6.968;2023-04-01T09:10:21;3.43;;;3.13;;
3443;SDS011;1736;52.068;6.968;2023-04-01T09:12:59;3.23;;;2.97;;
3443;SDS011;1736;52.068;6.968;2023-04-01T09:16:02;3.20;;;2.90;;
3443;SDS011;1736;52.068;6.968;2023-04-01T09:18:45;3.20;;;2.57;;
3443;SDS011;1736;52.068;6.968;2023-04-01T09:21:42;3.13;;;2.80;;
3443;SDS011;1736;52.068;6.968;2023-04-01T09:24:35;2.60;;;2.40;;
3443;SDS011;1736;52.068;6.968;2023-04-01T09:27:10;2.83;;;2.10;;
3443;SDS011;1736;52.068;6.968;2023-04-01T09:32:53;2.53;;;2.33;;
3443;SDS011;1736;52.068;6.968;2023-04-01T09:35:42;3.00;;;2.80;;
3443;SDS011;1736;52.068;6.968;2023-04-01T09:38:20;2.50;;;2.30;;
3443;SDS011;1736;52.068;6.968;2023-04-01T09:40:52;2.87;;;2.63;;
3443;SDS011;1736;52.068;6.968;2023-04-01T09:43:27;2.80;;;2.60;;
3443;SDS011;1736;52.068;6.968;2023-04-01T09:45:58;3.50;;;1.97;;
3443;SDS011;1736;52.068;6.968;2023-04-01T09:48:39;3.37;;;3.00;;
3443;SDS011;1736;52.068;6.968;2023-04-01T09:51:27;2.90;;;2.60;;
3443;SDS011;1736;52.068;6.968;2023-04-01T09:54:11;3.37;;;3.03;;
3443;SDS011;1736;52.068;6.968;2023-04-01T09:56:52;2.90;;;2.60;;
3443;SDS011;1736;52.068;6.968;2023-04-01T10:00:01;2.60;;;2.40;;
3443;SDS011;1736;52.068;6.968;2023-04-01T10:02:54;2.80;;;2.47;;
3443;SDS011;1736;52.068;6.968;2023-04-01T10:05:57;2.80;;;2.50;;
3443;SDS011;1736;52.068;6.968;2023-04-01T10:08:58;2.77;;;2.57;;
3443;SDS011;1736;52.068;6.968;2023-04-01T10:14:48;2.57;;;2.37;;
3443;SDS011;1736;52.068;6.968;2023-04-01T10:26:58;2.97;;;2.67;;
3443;SDS011;1736;52.068;6.968;2023-04-01T10:30:02;3.60;;;2.80;;
3443;SDS011;1736;52.068;6.968;2023-04-01T10:35:55;1.87;;;1.77;;
3443;SDS011;1736;52.068;6.968;2023-04-01T10:38:46;2.10;;;2.00;;
3443;SDS011;1736;52.068;6.968;2023-04-01T10:41:58;2.20;;;2.10;;
3443;SDS011;1736;52.068;6.968;2023-04-01T10:45:03;2.50;;;2.40;;
3443;SDS011;1736;52.068;6.968;2023-04-01T10:50:51;3.27;;;2.97;;
3443;SDS011;1736;52.068;6.968;2023-04-01T10:53:40;3.80;;;2.77;;
3443;SDS011;1736;52.068;6.968;2023-04-01T10:56:19;2.60;;;2.40;;
3443;SDS011;1736;52.068;6.968;2023-04-01T10:59:11;2.00;;;1.90;;
3443;SDS011;1736;52.068;6.968;2023-04-01T11:02:02;1.77;;;1.67;;
3443;SDS011;1736;52.068;6.968;2023-04-01T11:05:02;1.93;;;1.83;;
3443;SDS011;1736;52.068;6.968;2023-04-01T11:11:28;3.03;;;2.60;;
3443;SDS011;1736;52.068;6.968;2023-04-01T11:17:50;2.50;;;2.30;;
3443;SDS011;1736;52.068;6.968;2023-04-01T11:20:45;2.47;;;2.10;;
3443;SDS011;1736;52.068;6.968;2023-04-01T11:23:42;1.87;;;1.77;;
3443;SDS011;1736;52.068;6.968;2023-04-01T11:26:19;2.10;;;2.00;;
3443;SDS011;1736;52.068;6.968;2023-04-01T11:32:24;1.40;;;1.40;;
3443;SDS011;1736;52.068;6.968;2023-04-01T11:35:04;5.17;;;1.47;;
3443;SDS011;1736;52.068;6.968;2023-04-01T11:37:50;1.17;;;1.17;;
3443;SDS011;1736;52.068;6.968;2023-04-01T11:40:25;1.20;;;1.20;;
3443;SDS011;1736;52.068;6.968;2023-04-01T11:43:01;2.30;;;1.50;;
3443;SDS011;1736;52.068;6.968;2023-04-01T11:45:36;1.97;;;1.87;;
3443;SDS011;1736;52.068;6.968;2023-04-01T11:54:20;3.67;;;1.83;;
3443;SDS011;1736;52.068;6.968;2023-04-01T11:57:03;1.90;;;1.70;;
3443;SDS011;1736;52.068;6.968;2023-04-01T11:59:53;1.87;;;1.73;;
3443;SDS011;1736;52.068;6.968;2023-04-01T12:02:29;1.60;;;1.50;;
3443;SDS011;1736;52.068;6.968;2023-04-01T12:05:15;1.90;;;1.80;;
3443;SDS011;1736;52.068;6.968;2023-04-01T12:08:04;1.97;;;1.87;;
3443;SDS011;1736;52.068;6.968;2023-04-01T12:10:39;2.07;;;1.97;;
3443;SDS011;1736;52.068;6.968;2023-04-01T12:13:16;1.80;;;1.70;;
3443;SDS011;1736;52.068;6.968;2023-04-01T12:16:05;1.27;;;1.23;;
3443;SDS011;1736;52.068;6.968;2023-04-01T12:18:40;1.60;;;1.50;;
3443;SDS011;1736;52.068;6.968;2023-04-01T12:21:15;1.70;;;1.60;;
3443;SDS011;1736;52.068;6.968;2023-04-01T12:23:58;2.40;;;1.80;;
3443;SDS011;1736;52.068;6.968;2023-04-01T12:26:59;1.80;;;1.70;;
3443;SDS011;1736;52.068;6.968;2023-04-01T12:29:48;2.00;;;1.90;;
3443;SDS011;1736;52.068;6.968;2023-04-01T12:32:29;2.07;;;1.97;;
3443;SDS011;1736;52.068;6.968;2023-04-01T12:37:54;2.20;;;2.10;;
3443;SDS011;1736;52.068;6.968;2023-04-01T12:40:43;2.27;;;2.10;;
3443;SDS011;1736;52.068;6.968;2023-04-01T12:43:20;2.20;;;2.00;;
3443;SDS011;1736;52.068;6.968;2023-04-01T12:46:10;1.90;;;1.80;;
3443;SDS011;1736;52.068;6.968;2023-04-01T12:48:49;2.30;;;2.10;;
3443;SDS011;1736;52.068;6.968;2023-04-01T12:54:30;2.37;;;2.00;;
3443;SDS011;1736;52.068;6.968;2023-04-01T12:57:28;1.90;;;1.80;;
3443;SDS011;1736;52.068;6.968;2023-04-01T13:00:23;2.40;;;1.80;;
3443;SDS011;1736;52.068;6.968;2023-04-01T13:03:01;2.13;;;2.03;;
3443;SDS011;1736;52.068;6.968;2023-04-01T13:05:46;2.00;;;1.90;;
3443;SDS011;1736;52.068;6.968;2023-04-01T13:08:30;2.60;;;2.40;;
3443;SDS011;1736;52.068;6.968;2023-04-01T13:11:09;2.70;;;2.50;;
3443;SDS011;1736;52.068;6.968;2023-04-01T13:13:56;1.80;;;1.70;;
3443;SDS011;1736;52.068;6.968;2023-04-01T13:16:46;1.83;;;1.73;;
3443;SDS011;1736;52.068;6.968;2023-04-01T13:19:21;2.13;;;2.03;;
3443;SDS011;1736;52.068;6.968;2023-04-01T13:21:57;2.27;;;2.13;;
3443;SDS011;1736;52.068;6.968;2023-04-01T13:24:30;2.70;;;2.50;;
3443;SDS011;1736;52.068;6.968;2023-04-01T13:27:09;2.93;;;2.70;;
3443;SDS011;1736;52.068;6.968;2023-04-01T13:29:45;3.70;;;3.40;;
3443;SDS011;1736;52.068;6.968;2023-04-01T13:32:28;4.50;;;3.90;;
3443;SDS011;1736;52.068;6.968;2023-04-01T13:35:04;3.33;;;3.03;;
3443;SDS011;1736;52.068;6.968;2023-04-01T13:37:44;3.53;;;3.33;;
3443;SDS011;1736;52.068;6.968;2023-04-01T13:40:24;3.90;;;3.60;;
3443;SDS011;1736;52.068;6.968;2023-04-01T13:42:57;3.60;;;3.40;;
3443;SDS011;1736;52.068;6.968;2023-04-01T13:45:32;4.30;;;3.90;;
3443;SDS011;1736;52.068;6.968;2023-04-01T13:48:17;4.57;;;4.17;;
3443;SDS011;1736;52.068;6.968;2023-04-01T13:53:59;3.60;;;3.30;;
3443;SDS011;1736;52.068;6.968;2023-04-01T13:56:37;3.83;;;3.53;;
3443;SDS011;1736;52.068;6.968;2023-04-01T14:02:13;2.73;;;2.53;;
3443;SDS011;1736;52.068;6.968;2023-04-01T14:04:53;5.50;;;3.17;;
3443;SDS011;1736;52.068;6.968;2023-04-01T14:07:40;3.20;;;2.90;;
3443;SDS011;1736;52.068;6.968;2023-04-01T14:10:18;2.87;;;2.67;;
3443;SDS011;1736;52.068;6.968;2023-04-01T14:12:51;3.07;;;2.87;;
3443;SDS011;1736;52.068;6.968;2023-04-01T14:15:31;3.50;;;3.20;;
3443;SDS011;1736;52.068;6.968;2023-04-01T14:18:13;7.93;;;2.90;;
3443;SDS011;1736;52.068;6.968;2023-04-01T14:20:51;4.30;;;3.40;;
3443;SDS011;1736;52.068;6.968;2023-04-01T14:23:42;7.23;;;4.00;;
3443;SDS011;1736;52.068;6.968;2023-04-01T14:26:22;3.60;;;3.30;;
3443;SDS011;1736;52.068;6.968;2023-04-01T14:29:03;3.70;;;3.40;;
3443;SDS011;1736;52.068;6.968;2023-04-01T14:31:47;3.60;;;3.30;;
3443;SDS011;1736;52.068;6.968;2023-04-01T14:34:23;3.40;;;3.10;;
3443;SDS011;1736;52.068;6.968;2023-04-01T14:37:07;4.33;;;2.90;;
3443;SDS011;1736;52.068;6.968;2023-04-01T14:42:59;7.30;;;3.23;;
3443;SDS011;1736;52.068;6.968;2023-04-01T14:45:46;2.90;;;2.70;;
3443;SDS011;1736;52.068;6.968;2023-04-01T14:48:25;4.20;;;3.73;;
3443;SDS011;1736;52.068;6.968;2023-04-01T14:51:02;4.60;;;3.93;;
3443;SDS011;1736;52.068;6.968;2023-04-01T14:53:34;4.00;;;3.37;;
3443;SDS011;1736;52.068;6.968;2023-04-01T14:56:06;3.57;;;3.27;;
3443;SDS011;1736;52.068;6.968;2023-04-01T14:58:41;4.07;;;3.70;;
3443;SDS011;1736;52.068;6.968;2023-04-01T15:01:17;4.00;;;3.60;;
3443;SDS011;1736;52.068;6.968;2023-04-01T15:03:58;3.53;;;3.23;;
3443;SDS011;1736;52.068;6.968;2023-04-01T15:06:45;3.40;;;3.10;;
3443;SDS011;1736;52.068;6.968;2023-04-01T15:09:26;3.57;;;3.27;;
3443;SDS011;1736;52.068;6.968;2023-04-01T15:12:06;5.00;;;3.20;;
3443;SDS011;1736;52.068;6.968;2023-04-01T15:14:46;3.40;;;3.10;;
3443;SDS011;1736;52.068;6.968;2023-04-01T15:17:25;3.93;;;3.57;;
3443;SDS011;1736;52.068;6.968;2023-04-01T15:20:07;4.10;;;3.70;;
3443;SDS011;1736;52.068;6.968;2023-04-01T15:22:47;3.80;;;3.50;;
3443;SDS011;1736;52.068;6.968;2023-04-01T15:25:25;4.13;;;3.30;;
3443;SDS011;1736;52.068;6.968;2023-04-01T15:28:04;3.70;;;3.40;;
3443;SDS011;1736;52.068;6.968;2023-04-01T15:30:38;3.67;;;3.33;;
3443;SDS011;1736;52.068;6.968;2023-04-01T15:33:20;3.70;;;3.40;;
3443;SDS011;1736;52.068;6.968;2023-04-01T15:35:57;3.57;;;3.27;;
3443;SDS011;1736;52.068;6.968;2023-04-01T15:38:34;3.30;;;3.00;;
3443;SDS011;1736;52.068;6.968;2023-04-01T15:41:08;2.93;;;2.73;;
3443;SDS011;1736;52.068;6.968;2023-04-01T15:43:41;3.73;;;3.43;;
3443;SDS011;1736;52.068;6.968;2023-04-01T15:46:15;3.30;;;3.10;;
3443;SDS011;1736;52.068;6.968;2023-04-01T15:48:55;3.93;;;3.53;;
3443;SDS011;1736;52.068;6.968;2023-04-01T15:51:38;2.80;;;2.60;;
3443;SDS011;1736;52.068;6.968;2023-04-01T15:54:25;3.77;;;3.40;;
3443;SDS011;1736;52.068;6.968;2023-04-01T15:57:04;3.40;;;3.10;;
3443;SDS011;1736;52.068;6.968;2023-04-01T15:59:50;3.00;;;2.80;;
3443;SDS011;1736;52.068;6.968;2023-04-01T16:02:29;3.10;;;2.90;;
3443;SDS011;1736;52.068;6.968;2023-04-01T16:05:01;3.33;;;3.10;;
3443;SDS011;1736;52.068;6.968;2023-04-01T16:07:47;3.47;;;3.27;;
3443;SDS011;1736;52.068;6.968;2023-04-01T16:10:29;3.33;;;3.03;;
3443;SDS011;1736;52.068;6.968;2023-04-01T16:13:12;3.00;;;2.80;;
3443;SDS011;1736;52.068;6.968;2023-04-01T16:15:51;2.40;;;2.30;;
3443;SDS011;1736;52.068;6.968;2023-04-01T16:18:30;3.03;;;2.73;;
3443;SDS011;1736;52.068;6.968;2023-04-01T16:21:08;2.90;;;2.70;;
3443;SDS011;1736;52.068;6.968;2023-04-01T16:23:47;3.33;;;2.70;;
3443;SDS011;1736;52.068;6.968;2023-04-01T16:26:20;3.13;;;2.93;;
3443;SDS011;1736;52.068;6.968;2023-04-01T16:28:53;2.60;;;2.50;;
3443;SDS011;1736;52.068;6.968;2023-04-01T16:31:26;2.80;;;2.70;;
3443;SDS011;1736;52.068;6.968;2023-04-01T16:34:01;2.33;;;2.23;;
3443;SDS011;1736;52.068;6.968;2023-04-01T16:36:35;2.70;;;2.50;;
3443;SDS011;1736;52.068;6.968;2023-04-01T16:39:10;3.37;;;3.10;;
3443;SDS011;1736;52.068;6.968;2023-04-01T16:41:51;3.53;;;2.50;;
3443;SDS011;1736;52.068;6.968;2023-04-01T16:44:26;2.67;;;2.47;;
3443;SDS011;1736;52.068;6.968;2023-04-01T16:46:53;3.10;;;2.80;;
3443;SDS011;1736;52.068;6.968;2023-04-01T16:49:28;2.80;;;2.60;;
3443;SDS011;1736;52.068;6.968;2023-04-01T16:54:43;2.93;;;2.73;;
3443;SDS011;1736;52.068;6.968;2023-04-01T16:57:25;2.77;;;2.57;;
3443;SDS011;1736;52.068;6.968;2023-04-01T16:59:58;2.80;;;2.60;;
3443;SDS011;1736;52.068;6.968;2023-04-01T17:02:31;2.60;;;2.47;;
3443;SDS011;1736;52.068;6.968;2023-04-01T17:05:03;2.93;;;2.73;;
3443;SDS011;1736;52.068;6.968;2023-04-01T17:07:35;2.57;;;2.40;;
3443;SDS011;1736;52.068;6.968;2023-04-01T17:10:16;2.53;;;2.43;;
3443;SDS011;1736;52.068;6.968;2023-04-01T17:13:03;2.17;;;2.07;;
3443;SDS011;1736;52.068;6.968;2023-04-01T17:15:42;3.13;;;2.93;;